sensor_id;sensor_type;location;lat;lon;timestamp;P1;durP1;ratioP1;P2;durP2;ratioP2
62102;SDS011;48077;48.104;11.702;2023-07-31T00:00:39;70.13;;;63.70;;
62102;SDS011;48077;48.104;11.702;2023-07-31T00:07:40;91.22;;;82.00;;
62102;SDS011;48077;48.104;11.702;2023-07-31T00:10:04;81.65;;;73.90;;
62102;SDS011;48077;48.104;11.702;2023-07-31T00:12:27;83.40;;;75.40;;
62102;SDS011;48077;48.104;11.702;2023-07-31T00:14:54;81.95;;;74.35;;
62102;SDS011;48077;48.104;11.702;2023-07-31T00:17:17;81.05;;;73.38;;
62102;SDS011;48077;48.104;11.702;2023-07-31T00:19:41;77.10;;;69.93;;
62102;SDS011;48077;48.104;11.702;2023-07-31T00:22:04;81.28;;;73.30;;
62102;SDS011;48077;48.104;11.702;2023-07-31T00:24:28;81.72;;;74.13;;
62102;SDS011;48077;48.104;11.702;2023-07-31T00:26:51;80.30;;;72.72;;
62102;SDS011;48077;48.104;11.702;2023-07-31T00:29:14;77.32;;;70.20;;
62102;SDS011;48077;48.104;11.702;2023-07-31T00:31:38;83.30;;;75.35;;
62102;SDS011;48077;48.104;11.702;2023-07-31T00:34:01;80.35;;;72.60;;
62102;SDS011;48077;48.104;11.702;2023-07-31T00:36:24;82.70;;;75.07;;
62102;SDS011;48077;48.104;11.702;2023-07-31T00:38:48;82.38;;;74.43;;
62102;SDS011;48077;48.104;11.702;2023-07-31T00:41:12;80.72;;;72.95;;
62102;SDS011;48077;48.104;11.702;2023-07-31T00:43:35;84.35;;;76.05;;
62102;SDS011;48077;48.104;11.702;2023-07-31T00:45:58;86.95;;;78.60;;
62102;SDS011;48077;48.104;11.702;2023-07-31T00:48:22;83.70;;;75.70;;
62102;SDS011;48077;48.104;11.702;2023-07-31T00:50:46;85.13;;;77.03;;
62102;SDS011;48077;48.104;11.702;2023-07-31T00:53:09;84.03;;;75.95;;
62102;SDS011;48077;48.104;11.702;2023-07-31T00:55:33;86.28;;;78.07;;
62102;SDS011;48077;48.104;11.702;2023-07-31T00:57:57;85.68;;;77.47;;
62102;SDS011;48077;48.104;11.702;2023-07-31T01:00:20;84.20;;;76.15;;
62102;SDS011;48077;48.104;11.702;2023-07-31T01:02:44;88.97;;;80.25;;
62102;SDS011;48077;48.104;11.702;2023-07-31T01:05:08;90.95;;;82.10;;
62102;SDS011;48077;48.104;11.702;2023-07-31T01:12:42;93.45;;;84.20;;
62102;SDS011;48077;48.104;11.702;2023-07-31T01:15:09;88.97;;;80.47;;
62102;SDS011;48077;48.104;11.702;2023-07-31T01:20:02;105.28;;;94.25;;
62102;SDS011;48077;48.104;11.702;2023-07-31T01:22:34;98.63;;;88.63;;
62102;SDS011;48077;48.104;11.702;2023-07-31T01:25:29;97.72;;;87.60;;
62102;SDS011;48077;48.104;11.702;2023-07-31T01:27:59;96.28;;;86.63;;
62102;SDS011;48077;48.104;11.702;2023-07-31T01:30:25;94.55;;;85.20;;
62102;SDS011;48077;48.104;11.702;2023-07-31T01:32:55;94.75;;;85.07;;
62102;SDS011;48077;48.104;11.702;2023-07-31T01:35:20;97.22;;;87.25;;
62102;SDS011;48077;48.104;11.702;2023-07-31T01:37:43;94.10;;;84.78;;
62102;SDS011;48077;48.104;11.702;2023-07-31T01:40:08;88.28;;;79.82;;
62102;SDS011;48077;48.104;11.702;2023-07-31T01:42:31;87.80;;;79.20;;
62102;SDS011;48077;48.104;11.702;2023-07-31T01:44:55;91.57;;;82.65;;
62102;SDS011;48077;48.104;11.702;2023-07-31T01:47:18;90.88;;;81.85;;
62102;SDS011;48077;48.104;11.702;2023-07-31T01:49:42;86.43;;;78.22;;
62102;SDS011;48077;48.104;11.702;2023-07-31T01:52:05;85.70;;;77.63;;
62102;SDS011;48077;48.104;11.702;2023-07-31T01:54:31;86.95;;;78.72;;
62102;SDS011;48077;48.104;11.702;2023-07-31T01:56:54;88.28;;;79.90;;
62102;SDS011;48077;48.104;11.702;2023-07-31T01:59:18;86.32;;;78.03;;
62102;SDS011;48077;48.104;11.702;2023-07-31T02:01:41;88.70;;;80.25;;
62102;SDS011;48077;48.104;11.702;2023-07-31T02:04:04;91.38;;;82.32;;
62102;SDS011;48077;48.104;11.702;2023-07-31T02:06:28;88.90;;;80.20;;
62102;SDS011;48077;48.104;11.702;2023-07-31T02:08:52;88.50;;;79.80;;
62102;SDS011;48077;48.104;11.702;2023-07-31T02:11:15;88.47;;;79.88;;
62102;SDS011;48077;48.104;11.702;2023-07-31T02:13:39;87.82;;;79.40;;
62102;SDS011;48077;48.104;11.702;2023-07-31T02:16:02;88.63;;;80.00;;
62102;SDS011;48077;48.104;11.702;2023-07-31T02:18:25;88.32;;;79.57;;
62102;SDS011;48077;48.104;11.702;2023-07-31T02:20:52;85.22;;;77.07;;
62102;SDS011;48077;48.104;11.702;2023-07-31T02:23:15;91.45;;;82.47;;
62102;SDS011;48077;48.104;11.702;2023-07-31T02:25:38;86.45;;;78.10;;
62102;SDS011;48077;48.104;11.702;2023-07-31T02:28:02;88.63;;;79.72;;
62102;SDS011;48077;48.104;11.702;2023-07-31T02:30:25;90.80;;;81.80;;
62102;SDS011;48077;48.104;11.702;2023-07-31T02:32:49;85.47;;;77.38;;
62102;SDS011;48077;48.104;11.702;2023-07-31T02:35:14;91.82;;;82.63;;
62102;SDS011;48077;48.104;11.702;2023-07-31T02:37:38;86.35;;;78.03;;
62102;SDS011;48077;48.104;11.702;2023-07-31T02:40:02;87.22;;;78.75;;
62102;SDS011;48077;48.104;11.702;2023-07-31T02:42:25;86.60;;;78.15;;
62102;SDS011;48077;48.104;11.702;2023-07-31T02:44:48;89.88;;;81.22;;
62102;SDS011;48077;48.104;11.702;2023-07-31T02:47:14;92.28;;;82.93;;
62102;SDS011;48077;48.104;11.702;2023-07-31T02:49:37;85.72;;;77.47;;
62102;SDS011;48077;48.104;11.702;2023-07-31T02:52:00;90.43;;;81.47;;
62102;SDS011;48077;48.104;11.702;2023-07-31T02:54:24;89.40;;;80.47;;
62102;SDS011;48077;48.104;11.702;2023-07-31T02:56:47;90.00;;;81.20;;
62102;SDS011;48077;48.104;11.702;2023-07-31T02:59:11;84.70;;;76.65;;
62102;SDS011;48077;48.104;11.702;2023-07-31T03:01:34;87.45;;;79.05;;
62102;SDS011;48077;48.104;11.702;2023-07-31T03:03:57;90.28;;;81.47;;
62102;SDS011;48077;48.104;11.702;2023-07-31T03:06:21;88.63;;;80.13;;
62102;SDS011;48077;48.104;11.702;2023-07-31T03:08:44;86.28;;;77.97;;
62102;SDS011;48077;48.104;11.702;2023-07-31T03:11:07;94.65;;;85.18;;
62102;SDS011;48077;48.104;11.702;2023-07-31T03:13:31;87.78;;;79.38;;
62102;SDS011;48077;48.104;11.702;2023-07-31T03:15:54;94.07;;;84.95;;
62102;SDS011;48077;48.104;11.702;2023-07-31T03:18:17;95.60;;;85.65;;
62102;SDS011;48077;48.104;11.702;2023-07-31T03:20:44;92.32;;;83.25;;
62102;SDS011;48077;48.104;11.702;2023-07-31T03:23:07;95.88;;;86.28;;
62102;SDS011;48077;48.104;11.702;2023-07-31T03:25:31;93.57;;;84.32;;
62102;SDS011;48077;48.104;11.702;2023-07-31T03:27:54;93.47;;;84.28;;
62102;SDS011;48077;48.104;11.702;2023-07-31T03:30:17;94.47;;;85.13;;
62102;SDS011;48077;48.104;11.702;2023-07-31T03:32:41;92.68;;;83.57;;
62102;SDS011;48077;48.104;11.702;2023-07-31T03:35:06;98.70;;;88.60;;
62102;SDS011;48077;48.104;11.702;2023-07-31T03:37:30;99.25;;;89.20;;
62102;SDS011;48077;48.104;11.702;2023-07-31T03:39:53;96.97;;;87.25;;
62102;SDS011;48077;48.104;11.702;2023-07-31T03:42:17;94.07;;;84.65;;
62102;SDS011;48077;48.104;11.702;2023-07-31T03:44:40;95.95;;;86.47;;
62102;SDS011;48077;48.104;11.702;2023-07-31T03:47:03;102.35;;;91.90;;
62102;SDS011;48077;48.104;11.702;2023-07-31T03:49:30;99.88;;;90.00;;
62102;SDS011;48077;48.104;11.702;2023-07-31T03:51:53;97.30;;;87.75;;
62102;SDS011;48077;48.104;11.702;2023-07-31T03:54:17;100.35;;;90.10;;
62102;SDS011;48077;48.104;11.702;2023-07-31T03:56:40;98.95;;;89.15;;
62102;SDS011;48077;48.104;11.702;2023-07-31T03:59:03;103.80;;;93.00;;
62102;SDS011;48077;48.104;11.702;2023-07-31T04:01:27;104.57;;;93.78;;
62102;SDS011;48077;48.104;11.702;2023-07-31T04:03:50;102.40;;;91.82;;
62102;SDS011;48077;48.104;11.702;2023-07-31T04:06:13;105.65;;;94.57;;
62102;SDS011;48077;48.104;11.702;2023-07-31T04:08:40;106.82;;;95.75;;
62102;SDS011;48077;48.104;11.702;2023-07-31T04:11:04;106.13;;;95.38;;
62102;SDS011;48077;48.104;11.702;2023-07-31T04:13:29;101.63;;;91.25;;
62102;SDS011;48077;48.104;11.702;2023-07-31T04:15:52;102.47;;;92.18;;
62102;SDS011;48077;48.104;11.702;2023-07-31T04:18:17;104.05;;;93.25;;
62102;SDS011;48077;48.104;11.702;2023-07-31T04:20:40;99.40;;;89.38;;
62102;SDS011;48077;48.104;11.702;2023-07-31T04:23:04;102.38;;;92.13;;
62102;SDS011;48077;48.104;11.702;2023-07-31T04:25:27;98.57;;;88.80;;
62102;SDS011;48077;48.104;11.702;2023-07-31T04:27:50;102.13;;;91.85;;
62102;SDS011;48077;48.104;11.702;2023-07-31T04:30:14;97.93;;;88.03;;
62102;SDS011;48077;48.104;11.702;2023-07-31T04:32:37;102.65;;;92.32;;
62102;SDS011;48077;48.104;11.702;2023-07-31T04:35:01;98.95;;;89.20;;
62102;SDS011;48077;48.104;11.702;2023-07-31T04:37:24;102.53;;;92.05;;
62102;SDS011;48077;48.104;11.702;2023-07-31T04:39:48;98.57;;;88.75;;
62102;SDS011;48077;48.104;11.702;2023-07-31T04:42:11;99.75;;;89.72;;
62102;SDS011;48077;48.104;11.702;2023-07-31T04:44:35;97.95;;;88.25;;
62102;SDS011;48077;48.104;11.702;2023-07-31T04:46:58;95.78;;;86.30;;
62102;SDS011;48077;48.104;11.702;2023-07-31T04:49:21;97.97;;;88.20;;
62102;SDS011;48077;48.104;11.702;2023-07-31T04:51:45;96.57;;;87.05;;
62102;SDS011;48077;48.104;11.702;2023-07-31T04:54:08;96.13;;;86.43;;
62102;SDS011;48077;48.104;11.702;2023-07-31T04:56:35;97.43;;;87.68;;
62102;SDS011;48077;48.104;11.702;2023-07-31T04:58:58;93.80;;;84.53;;
62102;SDS011;48077;48.104;11.702;2023-07-31T05:01:22;97.97;;;87.78;;
62102;SDS011;48077;48.104;11.702;2023-07-31T05:03:45;96.40;;;86.68;;
62102;SDS011;48077;48.104;11.702;2023-07-31T05:06:09;96.38;;;86.72;;
62102;SDS011;48077;48.104;11.702;2023-07-31T05:08:36;95.25;;;85.88;;
62102;SDS011;48077;48.104;11.702;2023-07-31T05:10:59;95.78;;;86.18;;
62102;SDS011;48077;48.104;11.702;2023-07-31T05:13:23;90.05;;;81.20;;
62102;SDS011;48077;48.104;11.702;2023-07-31T05:15:46;91.78;;;82.82;;
62102;SDS011;48077;48.104;11.702;2023-07-31T05:18:12;95.18;;;85.72;;
62102;SDS011;48077;48.104;11.702;2023-07-31T05:20:37;93.68;;;84.35;;
62102;SDS011;48077;48.104;11.702;2023-07-31T05:23:01;93.80;;;84.32;;
62102;SDS011;48077;48.104;11.702;2023-07-31T05:25:24;93.28;;;84.10;;
62102;SDS011;48077;48.104;11.702;2023-07-31T05:27:48;91.47;;;82.53;;
62102;SDS011;48077;48.104;11.702;2023-07-31T05:30:11;97.22;;;87.05;;
62102;SDS011;48077;48.104;11.702;2023-07-31T05:32:35;93.90;;;84.32;;
62102;SDS011;48077;48.104;11.702;2023-07-31T05:35:00;93.35;;;83.88;;
62102;SDS011;48077;48.104;11.702;2023-07-31T05:37:24;90.40;;;81.50;;
62102;SDS011;48077;48.104;11.702;2023-07-31T05:39:47;88.40;;;79.70;;
62102;SDS011;48077;48.104;11.702;2023-07-31T05:42:10;82.75;;;74.95;;
62102;SDS011;48077;48.104;11.702;2023-07-31T05:44:34;80.55;;;73.10;;
62102;SDS011;48077;48.104;11.702;2023-07-31T05:46:57;80.25;;;72.70;;
62102;SDS011;48077;48.104;11.702;2023-07-31T05:49:20;81.60;;;73.68;;
62102;SDS011;48077;48.104;11.702;2023-07-31T05:51:44;75.25;;;68.15;;
62102;SDS011;48077;48.104;11.702;2023-07-31T05:54:07;75.88;;;68.90;;
62102;SDS011;48077;48.104;11.702;2023-07-31T05:56:31;70.65;;;64.00;;
62102;SDS011;48077;48.104;11.702;2023-07-31T05:58:54;70.55;;;64.15;;
62102;SDS011;48077;48.104;11.702;2023-07-31T06:01:18;66.53;;;60.38;;
62102;SDS011;48077;48.104;11.702;2023-07-31T06:03:41;61.25;;;55.95;;
62102;SDS011;48077;48.104;11.702;2023-07-31T06:06:05;65.07;;;59.20;;
62102;SDS011;48077;48.104;11.702;2023-07-31T06:08:28;62.40;;;56.72;;
62102;SDS011;48077;48.104;11.702;2023-07-31T06:10:52;63.13;;;57.25;;
62102;SDS011;48077;48.104;11.702;2023-07-31T06:13:15;62.67;;;57.00;;
62102;SDS011;48077;48.104;11.702;2023-07-31T06:15:38;60.25;;;54.72;;
62102;SDS011;48077;48.104;11.702;2023-07-31T06:18:02;57.63;;;52.53;;
62102;SDS011;48077;48.104;11.702;2023-07-31T06:20:26;51.13;;;46.50;;
62102;SDS011;48077;48.104;11.702;2023-07-31T06:22:49;53.50;;;48.85;;
62102;SDS011;48077;48.104;11.702;2023-07-31T06:25:15;54.25;;;49.10;;
62102;SDS011;48077;48.104;11.702;2023-07-31T06:27:38;51.45;;;46.92;;
62102;SDS011;48077;48.104;11.702;2023-07-31T06:30:01;48.50;;;43.85;;
62102;SDS011;48077;48.104;11.702;2023-07-31T06:32:25;46.78;;;42.63;;
62102;SDS011;48077;48.104;11.702;2023-07-31T06:34:48;46.47;;;42.45;;
62102;SDS011;48077;48.104;11.702;2023-07-31T06:37:12;54.58;;;49.15;;
62102;SDS011;48077;48.104;11.702;2023-07-31T06:39:36;43.00;;;39.30;;
62102;SDS011;48077;48.104;11.702;2023-07-31T06:42:00;41.70;;;37.85;;
62102;SDS011;48077;48.104;11.702;2023-07-31T06:44:23;43.47;;;39.90;;
62102;SDS011;48077;48.104;11.702;2023-07-31T06:46:47;42.42;;;38.13;;
62102;SDS011;48077;48.104;11.702;2023-07-31T06:49:10;40.40;;;36.58;;
62102;SDS011;48077;48.104;11.702;2023-07-31T06:51:34;44.40;;;40.47;;
62102;SDS011;48077;48.104;11.702;2023-07-31T06:53:58;39.67;;;36.28;;
62102;SDS011;48077;48.104;11.702;2023-07-31T06:56:22;41.05;;;37.28;;
62102;SDS011;48077;48.104;11.702;2023-07-31T06:58:45;41.13;;;37.30;;
62102;SDS011;48077;48.104;11.702;2023-07-31T07:01:09;38.00;;;34.78;;
62102;SDS011;48077;48.104;11.702;2023-07-31T07:03:32;36.55;;;33.22;;
62102;SDS011;48077;48.104;11.702;2023-07-31T07:05:58;38.45;;;35.20;;
62102;SDS011;48077;48.104;11.702;2023-07-31T07:08:21;36.92;;;33.13;;
62102;SDS011;48077;48.104;11.702;2023-07-31T07:10:45;35.30;;;31.98;;
62102;SDS011;48077;48.104;11.702;2023-07-31T07:13:08;36.78;;;33.45;;
62102;SDS011;48077;48.104;11.702;2023-07-31T07:15:32;37.05;;;33.72;;
62102;SDS011;48077;48.104;11.702;2023-07-31T07:17:55;30.65;;;28.05;;
62102;SDS011;48077;48.104;11.702;2023-07-31T07:20:19;31.58;;;28.70;;
62102;SDS011;48077;48.104;11.702;2023-07-31T07:22:43;34.70;;;31.65;;
62102;SDS011;48077;48.104;11.702;2023-07-31T07:25:06;32.08;;;29.23;;
62102;SDS011;48077;48.104;11.702;2023-07-31T07:27:30;30.10;;;27.40;;
62102;SDS011;48077;48.104;11.702;2023-07-31T07:29:54;30.25;;;27.52;;
62102;SDS011;48077;48.104;11.702;2023-07-31T07:32:17;30.95;;;28.20;;
62102;SDS011;48077;48.104;11.702;2023-07-31T07:34:41;31.75;;;28.63;;
62102;SDS011;48077;48.104;11.702;2023-07-31T07:37:04;31.88;;;28.83;;
62102;SDS011;48077;48.104;11.702;2023-07-31T07:39:28;30.65;;;27.83;;
62102;SDS011;48077;48.104;11.702;2023-07-31T07:41:51;28.30;;;25.48;;
62102;SDS011;48077;48.104;11.702;2023-07-31T07:44:16;28.65;;;25.80;;
62102;SDS011;48077;48.104;11.702;2023-07-31T07:46:39;27.20;;;24.73;;
62102;SDS011;48077;48.104;11.702;2023-07-31T07:49:03;28.73;;;26.20;;
62102;SDS011;48077;48.104;11.702;2023-07-31T07:51:27;32.67;;;29.63;;
62102;SDS011;48077;48.104;11.702;2023-07-31T07:53:50;31.60;;;28.60;;
62102;SDS011;48077;48.104;11.702;2023-07-31T07:56:13;29.95;;;26.77;;
62102;SDS011;48077;48.104;11.702;2023-07-31T07:58:37;25.50;;;23.23;;
62102;SDS011;48077;48.104;11.702;2023-07-31T08:01:00;26.17;;;23.55;;
62102;SDS011;48077;48.104;11.702;2023-07-31T08:03:24;30.52;;;27.48;;
62102;SDS011;48077;48.104;11.702;2023-07-31T08:05:47;27.52;;;24.75;;
62102;SDS011;48077;48.104;11.702;2023-07-31T08:08:17;23.77;;;21.48;;
62102;SDS011;48077;48.104;11.702;2023-07-31T08:10:40;22.17;;;20.10;;
62102;SDS011;48077;48.104;11.702;2023-07-31T08:13:03;23.85;;;21.48;;
62102;SDS011;48077;48.104;11.702;2023-07-31T08:15:27;20.52;;;18.55;;
62102;SDS011;48077;48.104;11.702;2023-07-31T08:17:50;22.52;;;20.13;;
62102;SDS011;48077;48.104;11.702;2023-07-31T08:20:13;20.25;;;18.10;;
62102;SDS011;48077;48.104;11.702;2023-07-31T08:22:37;20.83;;;18.88;;
62102;SDS011;48077;48.104;11.702;2023-07-31T08:25:00;18.50;;;16.65;;
62102;SDS011;48077;48.104;11.702;2023-07-31T08:27:24;16.15;;;14.68;;
62102;SDS011;48077;48.104;11.702;2023-07-31T08:29:47;20.83;;;18.30;;
62102;SDS011;48077;48.104;11.702;2023-07-31T08:32:10;20.50;;;18.27;;
62102;SDS011;48077;48.104;11.702;2023-07-31T08:34:34;15.95;;;14.10;;
62102;SDS011;48077;48.104;11.702;2023-07-31T08:36:57;19.63;;;17.00;;
62102;SDS011;48077;48.104;11.702;2023-07-31T08:39:20;19.63;;;14.75;;
62102;SDS011;48077;48.104;11.702;2023-07-31T08:41:44;14.80;;;13.10;;
62102;SDS011;48077;48.104;11.702;2023-07-31T08:44:07;20.17;;;16.33;;
62102;SDS011;48077;48.104;11.702;2023-07-31T08:46:31;17.90;;;12.27;;
62102;SDS011;48077;48.104;11.702;2023-07-31T08:48:56;15.32;;;13.65;;
62102;SDS011;48077;48.104;11.702;2023-07-31T08:51:21;16.33;;;13.80;;
62102;SDS011;48077;48.104;11.702;2023-07-31T08:53:44;15.65;;;12.13;;
62102;SDS011;48077;48.104;11.702;2023-07-31T08:56:08;16.77;;;13.48;;
62102;SDS011;48077;48.104;11.702;2023-07-31T08:58:32;19.05;;;14.30;;
62102;SDS011;48077;48.104;11.702;2023-07-31T09:00:58;13.50;;;11.80;;
62102;SDS011;48077;48.104;11.702;2023-07-31T09:03:24;15.77;;;12.82;;
62102;SDS011;48077;48.104;11.702;2023-07-31T09:05:49;13.93;;;12.48;;
62102;SDS011;48077;48.104;11.702;2023-07-31T09:08:13;15.02;;;11.98;;
62102;SDS011;48077;48.104;11.702;2023-07-31T09:10:43;17.73;;;12.65;;
62102;SDS011;48077;48.104;11.702;2023-07-31T09:13:11;15.63;;;13.85;;
62102;SDS011;48077;48.104;11.702;2023-07-31T09:15:35;14.85;;;13.35;;
62102;SDS011;48077;48.104;11.702;2023-07-31T09:18:00;15.90;;;14.00;;
62102;SDS011;48077;48.104;11.702;2023-07-31T09:20:24;16.00;;;14.32;;
62102;SDS011;48077;48.104;11.702;2023-07-31T09:22:48;16.17;;;14.23;;
62102;SDS011;48077;48.104;11.702;2023-07-31T09:25:19;16.05;;;13.98;;
62102;SDS011;48077;48.104;11.702;2023-07-31T09:30:30;14.73;;;13.07;;
62102;SDS011;48077;48.104;11.702;2023-07-31T09:33:01;21.70;;;16.25;;
62102;SDS011;48077;48.104;11.702;2023-07-31T09:35:33;17.25;;;14.55;;
62102;SDS011;48077;48.104;11.702;2023-07-31T09:37:58;12.88;;;11.57;;
62102;SDS011;48077;48.104;11.702;2023-07-31T09:42:50;11.05;;;9.95;;
62102;SDS011;48077;48.104;11.702;2023-07-31T09:45:13;12.85;;;9.65;;
62102;SDS011;48077;48.104;11.702;2023-07-31T09:47:37;14.18;;;10.20;;
62102;SDS011;48077;48.104;11.702;2023-07-31T09:50:00;9.73;;;8.70;;
62102;SDS011;48077;48.104;11.702;2023-07-31T09:52:25;10.45;;;8.60;;
62102;SDS011;48077;48.104;11.702;2023-07-31T09:54:49;15.52;;;10.93;;
62102;SDS011;48077;48.104;11.702;2023-07-31T09:57:13;17.70;;;12.18;;
62102;SDS011;48077;48.104;11.702;2023-07-31T09:59:39;13.40;;;8.90;;
62102;SDS011;48077;48.104;11.702;2023-07-31T10:02:03;14.15;;;8.52;;
62102;SDS011;48077;48.104;11.702;2023-07-31T10:04:27;11.23;;;8.30;;
62102;SDS011;48077;48.104;11.702;2023-07-31T10:06:51;9.80;;;7.68;;
62102;SDS011;48077;48.104;11.702;2023-07-31T10:09:16;11.82;;;6.97;;
62102;SDS011;48077;48.104;11.702;2023-07-31T10:11:42;10.48;;;6.65;;
62102;SDS011;48077;48.104;11.702;2023-07-31T10:14:13;12.00;;;7.53;;
62102;SDS011;48077;48.104;11.702;2023-07-31T10:16:37;15.05;;;10.20;;
62102;SDS011;48077;48.104;11.702;2023-07-31T10:19:01;12.35;;;7.82;;
62102;SDS011;48077;48.104;11.702;2023-07-31T10:21:26;7.97;;;6.70;;
62102;SDS011;48077;48.104;11.702;2023-07-31T10:23:50;9.55;;;7.32;;
62102;SDS011;48077;48.104;11.702;2023-07-31T10:26:14;13.85;;;9.82;;
62102;SDS011;48077;48.104;11.702;2023-07-31T10:28:40;10.10;;;6.05;;
62102;SDS011;48077;48.104;11.702;2023-07-31T10:31:04;12.63;;;8.40;;
62102;SDS011;48077;48.104;11.702;2023-07-31T10:33:28;8.68;;;6.28;;
62102;SDS011;48077;48.104;11.702;2023-07-31T10:36:12;9.68;;;6.25;;
62102;SDS011;48077;48.104;11.702;2023-07-31T10:38:45;10.90;;;6.78;;
62102;SDS011;48077;48.104;11.702;2023-07-31T10:41:09;13.20;;;7.10;;
62102;SDS011;48077;48.104;11.702;2023-07-31T10:43:33;8.60;;;6.20;;
62102;SDS011;48077;48.104;11.702;2023-07-31T10:45:59;12.70;;;8.82;;
62102;SDS011;48077;48.104;11.702;2023-07-31T10:48:33;9.38;;;5.70;;
62102;SDS011;48077;48.104;11.702;2023-07-31T10:50:57;10.30;;;7.40;;
62102;SDS011;48077;48.104;11.702;2023-07-31T10:53:24;7.13;;;5.43;;
62102;SDS011;48077;48.104;11.702;2023-07-31T10:55:49;7.68;;;5.97;;
62102;SDS011;48077;48.104;11.702;2023-07-31T10:58:15;11.40;;;8.05;;
62102;SDS011;48077;48.104;11.702;2023-07-31T11:00:46;11.38;;;7.75;;
62102;SDS011;48077;48.104;11.702;2023-07-31T11:03:10;9.13;;;6.10;;
62102;SDS011;48077;48.104;11.702;2023-07-31T11:05:52;8.70;;;5.80;;
62102;SDS011;48077;48.104;11.702;2023-07-31T11:08:26;9.32;;;6.13;;
62102;SDS011;48077;48.104;11.702;2023-07-31T11:11:04;14.25;;;8.70;;
62102;SDS011;48077;48.104;11.702;2023-07-31T11:16:08;9.82;;;5.82;;
62102;SDS011;48077;48.104;11.702;2023-07-31T11:18:31;8.93;;;6.40;;
62102;SDS011;48077;48.104;11.702;2023-07-31T11:20:55;7.95;;;5.65;;
62102;SDS011;48077;48.104;11.702;2023-07-31T11:23:18;11.48;;;6.72;;
62102;SDS011;48077;48.104;11.702;2023-07-31T11:25:42;9.63;;;6.10;;
62102;SDS011;48077;48.104;11.702;2023-07-31T11:28:06;12.57;;;7.72;;
62102;SDS011;48077;48.104;11.702;2023-07-31T11:30:31;9.52;;;7.45;;
62102;SDS011;48077;48.104;11.702;2023-07-31T11:32:55;11.13;;;7.72;;
62102;SDS011;48077;48.104;11.702;2023-07-31T11:35:18;10.88;;;7.78;;
62102;SDS011;48077;48.104;11.702;2023-07-31T11:37:42;8.45;;;5.68;;
62102;SDS011;48077;48.104;11.702;2023-07-31T11:40:07;9.80;;;7.40;;
62102;SDS011;48077;48.104;11.702;2023-07-31T11:42:31;7.93;;;5.70;;
62102;SDS011;48077;48.104;11.702;2023-07-31T11:44:56;8.48;;;5.10;;
62102;SDS011;48077;48.104;11.702;2023-07-31T11:47:20;12.52;;;7.75;;
62102;SDS011;48077;48.104;11.702;2023-07-31T11:49:43;11.02;;;5.75;;
62102;SDS011;48077;48.104;11.702;2023-07-31T11:52:07;8.90;;;5.90;;
62102;SDS011;48077;48.104;11.702;2023-07-31T11:54:30;9.45;;;5.70;;
62102;SDS011;48077;48.104;11.702;2023-07-31T11:56:54;7.78;;;5.70;;
62102;SDS011;48077;48.104;11.702;2023-07-31T11:59:17;8.60;;;5.55;;
62102;SDS011;48077;48.104;11.702;2023-07-31T12:01:41;8.38;;;5.20;;
62102;SDS011;48077;48.104;11.702;2023-07-31T12:04:04;11.43;;;5.70;;
62102;SDS011;48077;48.104;11.702;2023-07-31T12:06:34;8.43;;;5.28;;
62102;SDS011;48077;48.104;11.702;2023-07-31T12:09:04;7.57;;;5.15;;
62102;SDS011;48077;48.104;11.702;2023-07-31T12:11:28;8.25;;;5.38;;
62102;SDS011;48077;48.104;11.702;2023-07-31T12:13:51;7.35;;;5.13;;
62102;SDS011;48077;48.104;11.702;2023-07-31T12:16:15;8.23;;;5.10;;
62102;SDS011;48077;48.104;11.702;2023-07-31T12:18:38;7.25;;;4.78;;
62102;SDS011;48077;48.104;11.702;2023-07-31T12:21:04;8.10;;;5.25;;
62102;SDS011;48077;48.104;11.702;2023-07-31T12:23:29;9.88;;;6.88;;
62102;SDS011;48077;48.104;11.702;2023-07-31T12:28:24;10.05;;;4.65;;
62102;SDS011;48077;48.104;11.702;2023-07-31T12:30:47;8.13;;;5.93;;
62102;SDS011;48077;48.104;11.702;2023-07-31T12:33:14;12.93;;;6.55;;
62102;SDS011;48077;48.104;11.702;2023-07-31T12:35:38;7.82;;;5.55;;
62102;SDS011;48077;48.104;11.702;2023-07-31T12:38:04;9.95;;;5.45;;
62102;SDS011;48077;48.104;11.702;2023-07-31T12:40:28;7.88;;;4.72;;
62102;SDS011;48077;48.104;11.702;2023-07-31T12:42:51;7.93;;;4.93;;
62102;SDS011;48077;48.104;11.702;2023-07-31T12:45:15;7.78;;;4.97;;
62102;SDS011;48077;48.104;11.702;2023-07-31T12:47:38;8.80;;;5.00;;
62102;SDS011;48077;48.104;11.702;2023-07-31T12:50:01;9.68;;;5.82;;
62102;SDS011;48077;48.104;11.702;2023-07-31T12:52:25;7.47;;;4.68;;
62102;SDS011;48077;48.104;11.702;2023-07-31T12:54:48;9.02;;;5.00;;
62102;SDS011;48077;48.104;11.702;2023-07-31T12:57:12;6.55;;;4.53;;
62102;SDS011;48077;48.104;11.702;2023-07-31T12:59:35;8.90;;;5.85;;
62102;SDS011;48077;48.104;11.702;2023-07-31T13:01:59;9.50;;;5.22;;
62102;SDS011;48077;48.104;11.702;2023-07-31T13:04:22;9.45;;;6.20;;
62102;SDS011;48077;48.104;11.702;2023-07-31T13:06:45;6.78;;;4.60;;
62102;SDS011;48077;48.104;11.702;2023-07-31T13:09:09;11.82;;;6.65;;
62102;SDS011;48077;48.104;11.702;2023-07-31T13:11:32;9.65;;;5.20;;
62102;SDS011;48077;48.104;11.702;2023-07-31T13:13:55;8.57;;;6.13;;
62102;SDS011;48077;48.104;11.702;2023-07-31T13:16:19;10.38;;;5.53;;
62102;SDS011;48077;48.104;11.702;2023-07-31T13:18:42;9.13;;;5.07;;
62102;SDS011;48077;48.104;11.702;2023-07-31T13:21:06;12.60;;;5.35;;
62102;SDS011;48077;48.104;11.702;2023-07-31T13:23:29;10.10;;;4.82;;
62102;SDS011;48077;48.104;11.702;2023-07-31T13:25:52;7.72;;;5.45;;
62102;SDS011;48077;48.104;11.702;2023-07-31T13:28:16;10.07;;;5.32;;
62102;SDS011;48077;48.104;11.702;2023-07-31T13:30:39;9.65;;;5.97;;
62102;SDS011;48077;48.104;11.702;2023-07-31T13:33:02;9.23;;;5.38;;
62102;SDS011;48077;48.104;11.702;2023-07-31T13:35:26;6.25;;;4.70;;
62102;SDS011;48077;48.104;11.702;2023-07-31T13:37:49;8.68;;;5.53;;
62102;SDS011;48077;48.104;11.702;2023-07-31T13:40:13;10.57;;;6.07;;
62102;SDS011;48077;48.104;11.702;2023-07-31T13:42:36;7.43;;;4.53;;
62102;SDS011;48077;48.104;11.702;2023-07-31T13:45:00;7.88;;;4.68;;
62102;SDS011;48077;48.104;11.702;2023-07-31T13:47:25;9.07;;;4.47;;
62102;SDS011;48077;48.104;11.702;2023-07-31T13:49:49;8.52;;;5.85;;
62102;SDS011;48077;48.104;11.702;2023-07-31T13:52:12;9.38;;;5.47;;
62102;SDS011;48077;48.104;11.702;2023-07-31T13:54:35;7.80;;;4.82;;
62102;SDS011;48077;48.104;11.702;2023-07-31T13:56:59;8.20;;;5.70;;
62102;SDS011;48077;48.104;11.702;2023-07-31T13:59:23;8.15;;;5.10;;
62102;SDS011;48077;48.104;11.702;2023-07-31T14:01:46;9.70;;;5.07;;
62102;SDS011;48077;48.104;11.702;2023-07-31T14:04:10;9.32;;;5.05;;
62102;SDS011;48077;48.104;11.702;2023-07-31T14:06:34;8.10;;;4.65;;
62102;SDS011;48077;48.104;11.702;2023-07-31T14:08:57;5.68;;;4.63;;
62102;SDS011;48077;48.104;11.702;2023-07-31T14:11:21;7.90;;;4.75;;
62102;SDS011;48077;48.104;11.702;2023-07-31T14:13:45;7.15;;;4.80;;
62102;SDS011;48077;48.104;11.702;2023-07-31T14:16:08;10.73;;;5.28;;
62102;SDS011;48077;48.104;11.702;2023-07-31T14:18:32;8.70;;;4.97;;
62102;SDS011;48077;48.104;11.702;2023-07-31T14:20:55;6.20;;;4.40;;